La Habra, CA (90631)

12:53 PM PDT on August 27, 2015 (GMT -0700)
La Habra Heights | | Change Station
CLOSE
Current Station
Personal Weather Station
Location: La Habra Heights, CA
Elevation: 600 ft
Nearby Weather Stations

Elev 600 ft 33.95 °N, 117.97 °W | Updated 4 seconds ago

Clear
Clear
96.2 °F
Feels Like 100 °F
N
1.0
Wind Variable Wind from SSE
Gusts 7.0 mph

Today
High -- | Low -- °F
--% Chance of Precip.
Yesterday
High -- | Low -- °F
Precip. -- in
6:21 AM 7:24 PM
Waxing Gibbous, 94% visible
Pressure 29.96 in
Visibility 10.0 miles
Clouds Clear
Heat Index 100 °F
Dew Point 66 °F
Humidity 38%
Rainfall 0.00 in
Snow Depth Not available.
UV 10 out of 12
Pollen 5.50 out of 12
Air Quality Not available.
Flu Activity Not available.
METAR KFUL 271853Z VRB06KT 10SM CLR 33/18 A2996 RMK AO2 SLP145 T03280183
Pressure 29.96 in
Visibility 10.0 miles
Clouds Clear
Heat Index 100 °F
Dew Point 66 °F
Humidity 38%
Rainfall 0.00 in
Snow Depth Not available.
UV 10 out of 12
Pollen 5.50 out of 12
Air Quality Not available.
Flu Activity Not available.
METAR KFUL 271853Z VRB06KT 10SM CLR 33/18 A2996 RMK AO2 SLP145 T03280183

10-Day Weather Forecast

×

Almanac

Astronomy

Aug. 27, 2015 Rise Set
Actual Time
Civil Twilight
Nautical Twilight
Astronomical Twilight
Moon
Length of Visible Light
Length of Day
Tomorrow will be .
, % of the Moon is Illuminated

Today's Extremes

State Highs State Lows

Community

WunderPhotos

Upload Photos

1,850,200 photos uploaded!

WunderBlogs® & News

Nearby

Air Quality

  Air Quality AQ Index Pollutant
Not available.

Snow Depth

Station Depth Elevation

Earthquake Activity

City Distance Mag. Time & Date
Minimum magnitude displayed is 2.5.

Coastal Water Temperatures

Place Temperature

Stations

Nearby Weather Stations

Station Location Temp. Windchill Dew Point Humidity Wind Precip. Elev Updated Type